createdAt,value
2023-03-21T00:02:36.477Z,12.50
2023-03-21T00:05:22.493Z,12.50
2023-03-21T00:08:08.373Z,12.60
2023-03-21T00:10:57.614Z,12.40
2023-03-21T00:13:43.556Z,12.40
2023-03-21T00:16:36.485Z,12.30
2023-03-21T00:19:26.610Z,12.40
2023-03-21T00:22:12.249Z,12.40
2023-03-21T00:24:57.905Z,12.40
2023-03-21T00:28:01.130Z,12.40
2023-03-21T00:30:48.958Z,12.30
2023-03-21T00:33:34.734Z,12.40
2023-03-21T00:36:25.874Z,12.40
2023-03-21T00:39:11.859Z,12.20
2023-03-21T00:41:57.106Z,12.20
2023-03-21T00:44:44.848Z,12.20
2023-03-21T00:47:30.224Z,12.40
2023-03-21T00:50:16.083Z,12.20
2023-03-21T00:53:01.489Z,12.30
2023-03-21T00:55:47.577Z,12.30
2023-03-21T00:58:33.605Z,12.30
2023-03-21T01:01:19.413Z,12.30
2023-03-21T01:04:13.498Z,12.20
2023-03-21T01:06:58.936Z,12.10
2023-03-21T01:09:44.428Z,12.10
2023-03-21T01:12:30.150Z,12.10
2023-03-21T01:15:15.667Z,12.10
2023-03-21T01:18:01.439Z,12.00
2023-03-21T01:20:47.411Z,12.00
2023-03-21T01:23:32.934Z,11.90
2023-03-21T01:26:18.748Z,11.90
2023-03-21T01:29:05.044Z,11.90
2023-03-21T01:31:50.796Z,11.90
2023-03-21T01:34:36.544Z,12.10
2023-03-21T01:37:22.733Z,12.00
2023-03-21T01:40:12.757Z,11.90
2023-03-21T01:43:00.095Z,11.90
2023-03-21T01:46:04.684Z,12.00
2023-03-21T01:49:13.069Z,12.00
2023-03-21T01:52:11.530Z,12.00
2023-03-21T01:54:59.792Z,12.00
2023-03-21T01:58:04.728Z,12.10
2023-03-21T02:01:18.765Z,12.10
2023-03-21T02:04:09.878Z,11.90
2023-03-21T02:07:09.890Z,11.90
2023-03-21T02:10:00.732Z,11.80
2023-03-21T02:12:46.750Z,11.70
2023-03-21T02:15:32.793Z,11.90
2023-03-21T02:18:30.703Z,11.80
2023-03-21T02:21:19.338Z,12.00
2023-03-21T02:24:24.737Z,11.80
2023-03-21T02:27:13.382Z,11.80
2023-03-21T02:30:26.743Z,11.90
2023-03-21T02:33:17.461Z,11.80
2023-03-21T02:36:15.500Z,11.70
2023-03-21T02:39:08.256Z,11.70
2023-03-21T02:42:02.635Z,11.80
2023-03-21T02:45:00.339Z,11.80
2023-03-21T02:47:48.066Z,11.90
2023-03-21T02:50:37.484Z,11.90
2023-03-21T02:53:25.434Z,12.00
2023-03-21T02:56:12.245Z,12.10
2023-03-21T02:59:04.242Z,11.90
2023-03-21T03:01:55.187Z,11.90
2023-03-21T03:04:41.626Z,11.90
2023-03-21T03:07:33.217Z,12.00
2023-03-21T03:10:48.255Z,12.10
2023-03-21T03:13:42.497Z,11.90
2023-03-21T03:16:56.954Z,11.90
2023-03-21T03:19:53.658Z,11.90
2023-03-21T03:22:53.267Z,11.90
2023-03-21T03:25:59.112Z,11.90
2023-03-21T03:28:48.605Z,12.00
2023-03-21T03:31:39.255Z,11.80
2023-03-21T03:34:26.721Z,12.00
2023-03-21T03:37:15.760Z,12.00
2023-03-21T03:40:20.235Z,12.00
2023-03-21T03:43:18.557Z,12.00
2023-03-21T03:46:10.490Z,12.10
2023-03-21T03:49:09.227Z,12.10
2023-03-21T03:51:57.884Z,12.10
2023-03-21T03:55:11.188Z,12.10
2023-03-21T03:58:01.226Z,12.10
2023-03-21T04:00:47.677Z,12.00
2023-03-21T04:03:47.860Z,11.90
2023-03-21T04:06:35.062Z,11.90
2023-03-21T04:09:31.386Z,12.00
2023-03-21T04:12:23.172Z,12.10
2023-03-21T04:15:25.259Z,12.10
2023-03-21T04:18:23.083Z,12.00
2023-03-21T04:21:10.323Z,11.80
2023-03-21T04:23:55.974Z,11.90
2023-03-21T04:26:41.826Z,11.90
2023-03-21T04:29:56.329Z,12.00
2023-03-21T04:32:56.821Z,11.90
2023-03-21T04:35:45.661Z,11.80
2023-03-21T04:38:33.943Z,11.80
2023-03-21T04:41:21.993Z,11.80
2023-03-21T04:44:08.916Z,11.80
2023-03-21T04:46:55.951Z,11.80
2023-03-21T04:49:42.295Z,11.90
2023-03-21T04:52:29.932Z,11.90
2023-03-21T04:55:16.032Z,12.00
2023-03-21T04:58:01.785Z,12.00
2023-03-21T05:00:47.713Z,12.00
2023-03-21T05:03:34.849Z,12.10
2023-03-21T05:06:20.583Z,12.10
2023-03-21T05:09:08.668Z,12.10
2023-03-21T05:11:55.445Z,12.10
2023-03-21T05:14:40.824Z,12.10
2023-03-21T05:17:28.378Z,12.50
2023-03-21T05:20:16.315Z,12.80
2023-03-21T05:23:02.420Z,13.10
2023-03-21T05:25:47.786Z,13.30
2023-03-21T05:28:40.149Z,13.50
2023-03-21T05:31:26.790Z,13.70
2023-03-21T05:34:23.525Z,13.80
2023-03-21T05:37:09.326Z,14.00
2023-03-21T05:40:02.530Z,14.10
2023-03-21T05:42:50.960Z,14.20
2023-03-21T05:45:41.342Z,14.30
2023-03-21T05:48:27.166Z,14.30
2023-03-21T05:51:33.562Z,14.40
2023-03-21T05:54:19.391Z,14.50
2023-03-21T05:57:07.331Z,14.50
2023-03-21T06:00:09.638Z,14.60
2023-03-21T06:03:01.401Z,14.60
2023-03-21T06:06:10.311Z,14.70
2023-03-21T06:09:01.851Z,14.70
2023-03-21T06:11:50.780Z,12.40
2023-03-21T06:14:49.966Z,14.80
2023-03-21T06:17:57.289Z,14.80
2023-03-21T06:20:42.930Z,14.80
2023-03-21T06:23:30.699Z,14.80
2023-03-21T06:26:19.893Z,14.90
2023-03-21T06:29:05.620Z,14.90
2023-03-21T06:31:51.580Z,18.50
2023-03-21T06:34:39.399Z,15.00
2023-03-21T06:37:26.595Z,15.00
2023-03-21T06:40:13.910Z,15.00
2023-03-21T06:42:59.771Z,15.00
2023-03-21T06:45:45.375Z,15.10
2023-03-21T06:48:31.483Z,15.10
2023-03-21T06:51:18.149Z,15.10
2023-03-21T06:54:32.572Z,15.10
2023-03-21T06:57:22.014Z,15.20
2023-03-21T07:00:09.576Z,15.20
2023-03-21T07:03:01.844Z,15.20
2023-03-21T07:05:47.872Z,15.20
2023-03-21T07:08:35.035Z,15.20
2023-03-21T07:11:22.041Z,15.20
2023-03-21T07:14:08.388Z,15.30
2023-03-21T07:16:54.084Z,15.30
2023-03-21T07:19:39.820Z,15.30
2023-03-21T07:22:25.473Z,15.30
2023-03-21T07:25:11.767Z,15.40
2023-03-21T07:27:58.519Z,15.40
2023-03-21T07:30:44.402Z,15.40
2023-03-21T07:33:30.854Z,15.40
2023-03-21T07:36:19.050Z,15.40
2023-03-21T07:39:04.669Z,15.40
2023-03-21T07:41:50.828Z,15.50
2023-03-21T07:44:49.024Z,15.50
2023-03-21T07:47:35.439Z,15.50
2023-03-21T07:50:21.043Z,15.50
2023-03-21T07:53:06.522Z,15.60
2023-03-21T07:55:58.458Z,15.60
2023-03-21T07:58:44.269Z,15.60
2023-03-21T08:01:30.287Z,15.60
2023-03-21T08:04:15.988Z,15.70
2023-03-21T08:07:01.832Z,15.60
2023-03-21T08:09:47.541Z,15.70
2023-03-21T08:12:32.942Z,15.70
2023-03-21T08:15:18.776Z,15.70
2023-03-21T08:18:04.058Z,15.80
2023-03-21T08:20:56.047Z,15.80
2023-03-21T08:23:41.401Z,15.80
2023-03-21T08:26:27.013Z,15.80
2023-03-21T08:29:13.289Z,15.80
2023-03-21T08:31:58.903Z,15.80
2023-03-21T08:34:44.730Z,15.80
2023-03-21T08:37:30.420Z,15.80
2023-03-21T08:40:17.211Z,15.90
2023-03-21T08:43:02.746Z,15.90
2023-03-21T08:45:48.314Z,15.90
2023-03-21T08:48:34.072Z,15.90
2023-03-21T08:51:19.980Z,15.90
2023-03-21T08:54:05.414Z,16.00
2023-03-21T08:56:51.050Z,16.00
2023-03-21T08:59:36.513Z,16.10
2023-03-21T09:02:21.933Z,15.70
2023-03-21T09:05:08.118Z,16.10
2023-03-21T09:07:53.609Z,16.20
2023-03-21T09:10:39.681Z,16.20
2023-03-21T09:13:25.798Z,16.30
2023-03-21T09:16:11.592Z,16.30
2023-03-21T09:18:59.133Z,16.30
2023-03-21T09:21:44.661Z,16.20
2023-03-21T09:24:30.698Z,16.30
2023-03-21T09:27:23.185Z,16.20
2023-03-21T09:30:10.085Z,16.20
2023-03-21T09:32:55.979Z,16.20
2023-03-21T09:35:42.748Z,16.20
2023-03-21T09:38:30.641Z,16.30
2023-03-21T09:41:25.759Z,16.30
2023-03-21T09:44:17.436Z,16.30
2023-03-21T09:47:03.367Z,16.30
2023-03-21T09:50:07.579Z,16.30
2023-03-21T09:53:01.046Z,16.30
2023-03-21T09:55:47.157Z,16.30
2023-03-21T09:58:40.016Z,16.30
2023-03-21T10:01:32.936Z,16.30
2023-03-21T10:04:20.328Z,16.30
2023-03-21T10:07:06.028Z,16.40
2023-03-21T10:09:52.056Z,16.40
2023-03-21T10:12:37.822Z,16.40
2023-03-21T10:15:24.823Z,16.40
2023-03-21T10:18:14.205Z,16.40
2023-03-21T10:21:06.341Z,16.40
2023-03-21T10:23:53.333Z,16.40
2023-03-21T10:26:39.188Z,16.50
2023-03-21T10:29:30.761Z,16.50
2023-03-21T10:32:17.488Z,16.50
2023-03-21T10:35:05.007Z,16.50
2023-03-21T10:37:50.522Z,16.50
2023-03-21T10:40:36.009Z,16.50
2023-03-21T10:43:27.953Z,16.50
2023-03-21T10:46:17.677Z,16.50
2023-03-21T10:49:03.759Z,16.50
2023-03-21T10:51:55.030Z,16.50
2023-03-21T10:54:40.696Z,16.50
2023-03-21T10:57:26.408Z,16.60
2023-03-21T11:00:18.806Z,16.50
2023-03-21T11:03:05.474Z,16.60
2023-03-21T11:05:56.174Z,16.60
2023-03-21T11:08:44.027Z,16.60
2023-03-21T11:11:35.760Z,16.50
2023-03-21T11:14:26.055Z,16.60
2023-03-21T11:17:17.536Z,16.60
2023-03-21T11:20:10.301Z,16.60
2023-03-21T11:22:56.618Z,16.60
2023-03-21T11:25:42.517Z,16.70
2023-03-21T11:28:37.496Z,16.60
2023-03-21T11:31:25.199Z,16.70
2023-03-21T11:34:23.733Z,16.60
2023-03-21T11:37:18.902Z,16.70
2023-03-21T11:40:23.656Z,16.70
2023-03-21T11:43:18.157Z,16.70
2023-03-21T11:46:04.232Z,16.70
2023-03-21T11:48:49.868Z,16.70
2023-03-21T11:51:38.786Z,16.70
2023-03-21T11:54:40.938Z,16.70
2023-03-21T11:57:54.848Z,16.70
2023-03-21T12:00:46.725Z,16.70
2023-03-21T12:03:50.788Z,16.80
2023-03-21T12:06:44.411Z,16.80
2023-03-21T12:09:33.017Z,16.80
2023-03-21T12:12:38.738Z,16.80
2023-03-21T12:15:30.225Z,16.80
2023-03-21T12:18:34.650Z,16.80
2023-03-21T12:21:20.425Z,16.80
2023-03-21T12:24:10.051Z,16.90
2023-03-21T12:27:14.248Z,16.90
2023-03-21T12:30:02.983Z,16.90
2023-03-21T12:33:04.184Z,16.90
2023-03-21T12:35:49.951Z,16.90
2023-03-21T12:38:47.469Z,17.00
2023-03-21T12:41:38.981Z,17.00
2023-03-21T12:44:26.316Z,17.00
2023-03-21T12:47:11.690Z,17.00
2023-03-21T12:50:03.609Z,17.00
2023-03-21T12:52:52.255Z,17.00
2023-03-21T12:55:39.530Z,17.00
2023-03-21T12:58:26.027Z,17.10
2023-03-21T13:01:12.309Z,17.10
2023-03-21T13:04:09.672Z,17.10
2023-03-21T13:06:56.072Z,17.10
2023-03-21T13:09:41.943Z,17.10
2023-03-21T13:12:30.981Z,17.10
2023-03-21T13:15:24.474Z,17.10
2023-03-21T13:18:32.669Z,17.00
2023-03-21T13:21:24.420Z,17.00
2023-03-21T13:24:18.812Z,17.50
2023-03-21T13:27:20.555Z,17.10
2023-03-21T13:30:06.785Z,17.10
2023-03-21T13:33:02.956Z,17.20
2023-03-21T13:35:56.293Z,17.20
2023-03-21T13:38:41.808Z,17.20
2023-03-21T13:41:40.714Z,17.20
2023-03-21T13:44:43.705Z,17.20
2023-03-21T13:47:50.638Z,17.30
2023-03-21T13:50:52.509Z,17.30
2023-03-21T13:53:39.412Z,17.30
2023-03-21T13:56:24.903Z,17.30
2023-03-21T13:59:10.894Z,17.30
2023-03-21T14:02:01.037Z,17.30
2023-03-21T14:05:03.980Z,17.40
2023-03-21T14:07:54.734Z,17.30
2023-03-21T14:10:44.767Z,17.30
2023-03-21T14:13:33.054Z,17.40
2023-03-21T14:16:22.055Z,17.40
2023-03-21T14:19:07.708Z,17.40
2023-03-21T14:21:54.020Z,17.40
2023-03-21T14:24:41.306Z,17.40
2023-03-21T14:27:29.743Z,17.40
2023-03-21T14:30:25.905Z,17.40
2023-03-21T14:33:20.455Z,17.40
2023-03-21T14:36:17.729Z,17.40
2023-03-21T14:39:11.108Z,17.40
2023-03-21T14:42:01.346Z,17.40
2023-03-21T14:44:55.291Z,17.40
2023-03-21T14:47:41.252Z,17.40
2023-03-21T14:50:46.129Z,17.40
2023-03-21T14:53:33.504Z,17.40
2023-03-21T14:56:25.673Z,17.40
2023-03-21T14:59:13.622Z,17.30
2023-03-21T15:02:02.685Z,17.30
2023-03-21T15:04:50.618Z,17.30
2023-03-21T15:07:36.470Z,17.30
2023-03-21T15:10:23.251Z,17.30
2023-03-21T15:13:23.357Z,17.30
2023-03-21T15:16:09.764Z,17.30
2023-03-21T15:18:55.560Z,17.30
2023-03-21T15:21:43.839Z,17.30
2023-03-21T15:24:35.546Z,17.30
2023-03-21T15:27:23.701Z,17.30
2023-03-21T15:30:19.084Z,17.20
2023-03-21T15:33:09.466Z,17.30
2023-03-21T15:35:56.069Z,17.30
2023-03-21T15:38:45.179Z,17.30
2023-03-21T15:41:31.993Z,17.30
2023-03-21T15:44:22.216Z,17.30
2023-03-21T15:47:13.580Z,17.30
2023-03-21T15:50:02.507Z,17.30
2023-03-21T15:52:49.628Z,17.30
2023-03-21T15:55:39.048Z,17.20
2023-03-21T15:58:26.408Z,17.20
2023-03-21T16:01:19.052Z,17.20
2023-03-21T16:04:14.055Z,17.20
2023-03-21T16:07:02.188Z,17.30
2023-03-21T16:09:47.819Z,17.20
2023-03-21T16:12:34.304Z,17.20
2023-03-21T16:15:19.942Z,17.20
2023-03-21T16:18:06.357Z,17.30
2023-03-21T16:20:53.541Z,17.30
2023-03-21T16:23:39.455Z,17.30
2023-03-21T16:26:29.406Z,17.30
2023-03-21T16:29:15.716Z,17.30
2023-03-21T16:32:06.113Z,17.30
2023-03-21T16:34:53.755Z,17.30
2023-03-21T16:37:39.720Z,17.30
2023-03-21T16:40:35.918Z,17.40
2023-03-21T16:43:22.621Z,17.40
2023-03-21T16:46:15.689Z,17.50
2023-03-21T16:49:01.354Z,17.40
2023-03-21T16:51:47.313Z,17.50
2023-03-21T16:54:32.648Z,17.50
2023-03-21T16:57:22.817Z,17.50
2023-03-21T17:00:11.669Z,17.50
2023-03-21T17:02:59.830Z,17.50
2023-03-21T17:05:45.484Z,17.50
2023-03-21T17:08:31.490Z,17.50
2023-03-21T17:11:20.080Z,17.50
2023-03-21T17:14:05.878Z,17.50
2023-03-21T17:16:51.406Z,17.50
2023-03-21T17:19:37.235Z,17.40
2023-03-21T17:22:22.621Z,17.40
2023-03-21T17:25:08.359Z,17.40
2023-03-21T17:27:54.208Z,17.40
2023-03-21T17:30:40.354Z,17.40
2023-03-21T17:33:26.088Z,17.40
2023-03-21T17:36:16.201Z,17.30
2023-03-21T17:39:02.229Z,17.30
2023-03-21T17:41:47.536Z,17.30
2023-03-21T17:44:33.147Z,17.30
2023-03-21T17:47:18.562Z,17.30
2023-03-21T17:50:04.311Z,17.30
2023-03-21T17:52:50.856Z,17.20
2023-03-21T17:55:36.772Z,17.20
2023-03-21T17:58:22.639Z,17.30
2023-03-21T18:01:07.915Z,17.20
2023-03-21T18:03:55.031Z,17.20
2023-03-21T18:06:40.554Z,17.20
2023-03-21T18:09:26.625Z,17.20
2023-03-21T18:12:12.083Z,17.30
2023-03-21T18:14:57.726Z,17.30
2023-03-21T18:17:43.382Z,17.30
2023-03-21T18:20:50.223Z,17.40
2023-03-21T18:23:34.384Z,17.40
2023-03-21T18:26:22.887Z,17.40
2023-03-21T18:30:13.100Z,17.40
2023-03-21T18:32:15.983Z,17.40
2023-03-21T18:35:01.762Z,17.40
2023-03-21T18:37:47.712Z,17.40
2023-03-21T18:40:33.165Z,17.50
2023-03-21T18:46:24.426Z,17.40
2023-03-21T18:49:52.069Z,17.40
2023-03-21T18:52:16.612Z,17.50
2023-03-21T18:55:02.784Z,17.40
2023-03-21T18:57:48.584Z,17.40
2023-03-21T19:00:34.030Z,17.40
2023-03-21T19:03:34.123Z,17.40
2023-03-21T19:06:21.445Z,17.40
2023-03-21T19:09:08.054Z,17.40
2023-03-21T19:11:53.373Z,17.50
2023-03-21T19:14:38.985Z,17.40
2023-03-21T19:18:15.715Z,17.50
2023-03-21T19:20:30.263Z,17.50
2023-03-21T19:23:17.276Z,17.50
2023-03-21T19:26:03.217Z,17.50
2023-03-21T19:28:48.794Z,17.50
2023-03-21T19:31:34.510Z,17.50
2023-03-21T19:34:20.910Z,17.50
2023-03-21T19:37:06.488Z,17.50
2023-03-21T19:39:52.317Z,14.90
2023-03-21T19:42:37.982Z,17.50
2023-03-21T19:45:23.660Z,17.50
2023-03-21T19:48:08.995Z,17.50
2023-03-21T19:51:26.353Z,17.50
2023-03-21T19:54:02.716Z,17.50
2023-03-21T19:56:48.462Z,17.50
2023-03-21T19:59:34.265Z,17.50
2023-03-21T20:02:34.925Z,17.50
2023-03-21T20:05:22.138Z,17.60
2023-03-21T20:08:10.907Z,17.50
2023-03-21T20:10:56.811Z,17.50
2023-03-21T20:13:42.742Z,17.60
2023-03-21T20:16:34.656Z,17.60
2023-03-21T20:19:22.809Z,17.20
2023-03-21T20:22:20.143Z,17.50
2023-03-21T20:25:10.444Z,17.50
2023-03-21T20:28:12.741Z,17.50
2023-03-21T20:31:01.973Z,17.50
2023-03-21T20:33:48.954Z,17.50
2023-03-21T20:36:40.548Z,17.60
2023-03-21T20:39:29.460Z,17.60
2023-03-21T20:42:15.659Z,17.50
2023-03-21T20:45:01.176Z,17.60
2023-03-21T20:47:46.932Z,17.50
2023-03-21T20:50:33.899Z,17.50
2023-03-21T20:53:20.342Z,17.50
2023-03-21T20:56:06.571Z,17.40
2023-03-21T20:59:08.015Z,17.40
2023-03-21T21:01:57.722Z,17.40
2023-03-21T21:04:57.332Z,17.20
2023-03-21T21:07:49.316Z,17.10
2023-03-21T21:10:44.811Z,16.90
2023-03-21T21:13:39.245Z,16.80
2023-03-21T21:16:24.943Z,16.80
2023-03-21T21:19:10.747Z,16.70
2023-03-21T21:21:56.018Z,16.60
2023-03-21T21:24:41.723Z,16.60
2023-03-21T21:27:27.274Z,16.60
2023-03-21T21:30:13.293Z,16.50
2023-03-21T21:33:00.833Z,16.40
2023-03-21T21:35:48.066Z,16.50
2023-03-21T21:38:34.748Z,16.40
2023-03-21T21:41:21.196Z,16.40
2023-03-21T21:44:06.796Z,16.40
2023-03-21T21:46:52.412Z,16.40
2023-03-21T21:49:38.204Z,16.40
2023-03-21T21:52:24.187Z,16.40
2023-03-21T21:55:09.702Z,16.40
2023-03-21T21:57:58.069Z,16.20
2023-03-21T22:00:44.166Z,15.70
2023-03-21T22:03:41.006Z,15.10
2023-03-21T22:06:27.217Z,14.90
2023-03-21T22:09:13.981Z,14.80
2023-03-21T22:11:59.337Z,14.50
2023-03-21T22:14:45.044Z,14.40
2023-03-21T22:17:30.900Z,14.40
2023-03-21T22:20:17.187Z,14.20
2023-03-21T22:23:02.790Z,14.10
2023-03-21T22:25:51.900Z,14.00
2023-03-21T22:28:40.167Z,13.90
2023-03-21T22:31:27.039Z,14.00
2023-03-21T22:34:12.433Z,13.90
2023-03-21T22:36:59.659Z,13.80
2023-03-21T22:39:45.068Z,13.80
2023-03-21T22:42:31.157Z,13.70
2023-03-21T22:45:16.979Z,13.70
2023-03-21T22:48:02.692Z,13.70
2023-03-21T22:50:48.321Z,13.60
2023-03-21T22:53:34.079Z,13.50
2023-03-21T22:56:19.748Z,13.60
2023-03-21T22:59:05.363Z,13.60
2023-03-21T23:01:51.092Z,13.50
2023-03-21T23:04:36.563Z,13.60
2023-03-21T23:07:22.221Z,13.40
2023-03-21T23:10:08.818Z,13.50
2023-03-21T23:12:54.071Z,13.40
2023-03-21T23:15:39.928Z,13.50
2023-03-21T23:18:25.391Z,13.50
2023-03-21T23:21:13.332Z,13.50
2023-03-21T23:23:58.960Z,13.40
2023-03-21T23:26:44.471Z,13.50
2023-03-21T23:29:30.012Z,13.50
2023-03-21T23:32:16.006Z,13.50
2023-03-21T23:35:01.519Z,13.50
2023-03-21T23:37:51.982Z,13.50
2023-03-21T23:40:41.438Z,13.40
2023-03-21T23:43:28.017Z,13.40
2023-03-21T23:46:14.445Z,13.30
2023-03-21T23:49:00.276Z,13.20
2023-03-21T23:51:47.151Z,13.20
2023-03-21T23:54:32.682Z,13.20
2023-03-21T23:57:18.392Z,13.30
